Flight Track Log - Related Links

Times and Time Zones

All times are in EDT time to prevent confusion due to time zone crossing. See the SWA3321 flight status page for this flight to view local times or setup timezone preferences in your user account.

Time Position Orientation Groundspeed Altitude Reporting Facility
EDT Latitude Longitude Course Direction KTS MPH feet Rate Location/Type
Mon 09:54:18 AM 41.7667 -87.8167 248° West 176 203 3,400  Level Chicago TRACON
Mon 09:55:18 AM 41.7667 -87.8833 270° West 214 246 4,000 250 Climbing Chicago TRACON
Mon 09:56:18 AM 41.7833 -87.9667 285° West 222 255 3,900 200 Descending Chicago TRACON
Mon 09:57:18 AM 41.8000 -88.0500 285° West 224 258 4,400 900 Climbing Chicago TRACON
Mon 09:58:18 AM 41.8167 -88.1167 289° West 221 254 5,700 1,854 Climbing Chicago TRACON
Mon 09:59:21 AM 41.7931 -88.1875 246° West 212 244 8,200 2,688 Climbing Chicago Center
Mon 10:00:23 AM 41.7722 -88.2658 250° West 235 270 11,300 2,419 Climbing Chicago Center
Mon 10:01:25 AM 41.7597 -88.3872 262° West 283 326 13,200 2,032 Climbing Chicago Center
Mon 10:02:27 AM 41.7633 -88.5078 272° West 326 375 15,500 2,661 Climbing Chicago Center
Mon 10:03:29 AM 41.7711 -88.6372 275° West 345 397 18,700 2,855 Climbing Chicago Center
Mon 10:04:31 AM 41.7775 -88.7667 274° West 350 403 21,400 2,323 Climbing Chicago Center
Mon 10:05:33 AM 41.7861 -88.8992 275° West 357 411 23,500 1,935 Climbing Chicago Center
Mon 10:06:35 AM 41.7975 -89.0614 275° West 368 423 25,400 1,694 Climbing Chicago Center
Mon 10:07:37 AM 41.7844 -89.2011 263° West 383 441 27,000 2,032 Climbing Chicago Center
Mon 10:08:39 AM 41.7661 -89.3419 260° West 383 441 29,600 2,032 Climbing Chicago Center
Mon 10:09:41 AM 41.7478 -89.4769 260° West 372 428 31,200 1,839 Climbing Chicago Center
Mon 10:10:43 AM 41.7292 -89.6119 260° West 360 414 33,400 1,355 Climbing Chicago Center
Mon 10:11:45 AM 41.7119 -89.7406 260° West 353 406 34,000 290 Climbing Chicago Center
Mon 10:12:47 AM 41.6942 -89.8736 260° West 361 415 34,000 242 Level Chicago Center
Mon 10:13:49 AM 41.6719 -90.0319 259° West 363 418 34,500 919 Climbing Chicago Center
Mon 10:14:51 AM 41.6539 -90.1647 260° West 363 418 35,900 726 Climbing Chicago Center
Mon 10:15:53 AM 41.6342 -90.2994 259° West 377 434 36,000 48 Climbing Chicago Center
Mon 10:16:55 AM 41.6147 -90.4333 259° West 373 429 36,000  Level Chicago Center
Mon 10:17:57 AM 41.5958 -90.5647 259° West 365 420 36,000  Level Chicago Center
Mon 10:18:59 AM 41.5769 -90.6978 259° West 364 419 36,000  Level Chicago Center
Mon 10:20:01 AM 41.5533 -90.8569 259° West 365 420 36,000  Level Chicago Center
Mon 10:21:03 AM 41.5336 -90.9900 259° West 367 422 36,000  Level Chicago Center
Mon 10:22:05 AM 41.5136 -91.1231 259° West 367 422 36,000  Level Chicago Center
Mon 10:23:06 AM 41.4928 -91.2558 258° West 366 421 36,000  Level Chicago Center
Mon 10:24:08 AM 41.4744 -91.3864 259° West 364 419 36,000  Level Chicago Center
Mon 10:25:10 AM 41.4500 -91.5444 258° West 365 420 36,000  Level Chicago Center
Mon 10:26:12 AM 41.4297 -91.6761 258° West 364 419 36,000  Level Chicago Center
Mon 10:27:14 AM 41.4086 -91.8067 258° West 364 419 36,000  Level Chicago Center
Mon 10:28:16 AM 41.3886 -91.9361 258° West 362 417 36,000  Level Chicago Center
Mon 10:29:18 AM 41.3692 -92.0644 259° West 358 412 36,000  Level Chicago Center
Mon 10:30:19 AM 41.3475 -92.1936 257° West 358 412 36,000  Level Chicago Center
Mon 10:31:21 AM 41.3219 -92.3497 258° West 361 415 36,000  Level Chicago Center
Mon 10:32:23 AM 41.3028 -92.4672 258° West 364 419 36,000  Level Chicago Center
Mon 10:33:25 AM 41.2822 -92.5953 258° West 361 415 36,000  Level Chicago Center
Mon 10:33:55 AM 41.2692 -92.6756 258° West 363 418 36,000  Level Minneapolis Center
Mon 10:34:57 AM 41.2483 -92.8022 258° West 358 412 36,000  Level Minneapolis Center
Mon 10:35:59 AM 41.2269 -92.9281 257° West 355 409 36,000  Level Minneapolis Center
Mon 10:37:00 AM 41.2017 -93.0797 258° West 354 407 36,000  Level Minneapolis Center
Mon 10:38:02 AM 41.1797 -93.2075 257° West 356 410 36,000  Level Minneapolis Center
Mon 10:39:04 AM 41.1578 -93.3361 257° West 360 414 36,000  Level Minneapolis Center
Mon 10:40:05 AM 41.1367 -93.4617 257° West 355 409 36,000  Level Minneapolis Center
Mon 10:41:07 AM 41.1139 -93.5911 257° West 360 414 36,000  Level Minneapolis Center
Mon 10:42:09 AM 41.0925 -93.7200 258° West 361 415 36,000  Level Minneapolis Center
Mon 10:43:11 AM 41.0647 -93.8775 257° West 365 420 36,000  Level Minneapolis Center
Mon 10:44:12 AM 41.0392 -94.0097 256° West 370 426 36,000  Level Minneapolis Center
Mon 10:45:14 AM 41.0142 -94.1389 256° West 370 426 36,000  Level Minneapolis Center
Mon 10:46:16 AM 40.9936 -94.2636 258° West 362 417 36,000  Level Minneapolis Center
Mon 10:47:17 AM 40.9736 -94.3892 258° West 356 410 36,000  Level Minneapolis Center
Mon 10:48:19 AM 40.9447 -94.5408 256° West 358 412 36,000  Level Minneapolis Center
Mon 10:49:21 AM 40.9197 -94.6733 256° West 358 412 36,000  Level Minneapolis Center
Mon 10:50:22 AM 40.8969 -94.8000 257° West 355 409 36,000  Level Minneapolis Center
Mon 10:51:24 AM 40.8733 -94.9267 256° West 355 409 36,000  Level Minneapolis Center
Mon 10:52:26 AM 40.8497 -95.0522 256° West 353 406 36,000  Level Minneapolis Center
Mon 10:53:27 AM 40.8261 -95.1800 256° West 355 409 36,000  Level Minneapolis Center
Mon 10:54:29 AM 40.8019 -95.3075 256° West 356 410 36,000  Level Minneapolis Center
Mon 10:55:31 AM 40.7781 -95.4347 256° West 356 410 36,000  Level Minneapolis Center
Mon 10:56:32 AM 40.7542 -95.5633 256° West 359 413 36,000  Level Minneapolis Center
Mon 10:57:34 AM 40.7286 -95.6931 255° West 361 415 36,000  Level Minneapolis Center
Mon 10:58:35 AM 40.6981 -95.8483 255° West 364 419 36,000  Level Minneapolis Center
Mon 10:59:37 AM 40.6728 -95.9797 256° West 367 422 36,000  Level Minneapolis Center
Mon 11:00:39 AM 40.6469 -96.1117 256° West 370 426 36,000  Level Minneapolis Center
Mon 11:01:40 AM 40.6217 -96.2411 256° West 367 422 36,000  Level Minneapolis Center
Mon 11:02:42 AM 40.5950 -96.3719 255° West 368 423 36,000  Level Minneapolis Center
Mon 11:03:43 AM 40.5692 -96.5011 255° West 366 421 36,000  Level Minneapolis Center
Mon 11:04:45 AM 40.5431 -96.6306 255° West 366 421 36,000  Level Minneapolis Center
Mon 11:05:47 AM 40.5169 -96.7583 255° West 363 418 36,000  Level Minneapolis Center
Mon 11:06:48 AM 40.4961 -96.8622 255° West 365 420 36,000 -390 Level Minneapolis Center
Mon 11:07:50 AM 40.4639 -97.0183 255° West 367 422 35,200 -488 Descending Minneapolis Center
Mon 11:08:51 AM 40.4331 -97.1656 255° West 353 406 35,000 -634 Descending Minneapolis Center
Mon 11:09:53 AM 40.4078 -97.2872 255° West 347 399 33,900 -488 Descending Minneapolis Center
Mon 11:10:54 AM 40.3831 -97.4072 255° West 351 404 34,000 49 Climbing Minneapolis Center
Mon 11:11:56 AM 40.3564 -97.5311 254° West 353 406 34,000  Level Minneapolis Center
Mon 11:12:57 AM 40.3300 -97.6575 255° West 356 410 34,000  Level Minneapolis Center
Mon 11:13:59 AM 40.3025 -97.7842 254° West 359 413 34,000  Level Minneapolis Center
Mon 11:15:00 AM 40.2750 -97.9111 254° West 361 415 34,000  Level Minneapolis Center
Mon 11:16:01 AM 40.2411 -98.0658 254° West 365 420 34,000  Level Minneapolis Center
Mon 11:17:15 AM 40.2131 -98.1942 254° West 365 420 34,000  Level Minneapolis Center
Mon 11:18:17 AM 40.1797 -98.3511 255° West 370 426 34,000  Level Minneapolis Center
Mon 11:19:18 AM 40.1508 -98.4814 254° West 372 428 34,000  Level Minneapolis Center
Mon 11:20:19 AM 40.1214 -98.6119 254° West 372 428 34,000  Level Minneapolis Center
Mon 11:21:21 AM 40.0933 -98.7431 254° West 373 429 34,000  Level Minneapolis Center
Mon 11:22:22 AM 40.0644 -98.8736 254° West 373 429 34,000  Level Minneapolis Center
Mon 11:23:24 AM 40.0339 -99.0028 253° West 373 429 34,000  Level Minneapolis Center
Mon 11:24:22 AM 40.0044 -99.1311 253° West 370 426 34,000  Level Denver Center
Mon 11:25:24 AM 39.9753 -99.2592 253° West 368 423 34,000  Level Denver Center
Mon 11:26:26 AM 39.9464 -99.3875 254° West 369 425 34,000  Level Denver Center
Mon 11:27:28 AM 39.9161 -99.5153 253° West 369 425 34,000  Level Denver Center
Mon 11:28:30 AM 39.8806 -99.6700 253° West 371 427 34,000  Level Denver Center
Mon 11:29:32 AM 39.8503 -99.7994 253° West 370 426 34,000  Level Denver Center
Mon 11:30:34 AM 39.8203 -99.9286 253° West 373 429 34,000  Level Denver Center
Mon 11:31:36 AM 39.7897 -100.0567 253° West 372 428 34,000  Level Denver Center
Mon 11:32:38 AM 39.7589 -100.1858 253° West 371 427 34,000  Level Denver Center
Mon 11:33:40 AM 39.7247 -100.3292 253° West 373 429 34,000  Level Denver Center
Mon 11:34:42 AM 39.6953 -100.4519 253° West 371 427 34,000  Level Denver Center
Mon 11:35:44 AM 39.6603 -100.5942 252° West 371 427 34,000  Level Denver Center
Mon 11:36:46 AM 39.6314 -100.7156 253° West 369 425 34,000  Level Denver Center
Mon 11:37:48 AM 39.6014 -100.8372 252° West 369 425 34,000  Level Denver Center
Mon 11:38:50 AM 39.5667 -100.9794 252° West 369 425 34,000  Level Denver Center
Mon 11:39:52 AM 39.5364 -101.1003 252° West 368 423 34,000  Level Denver Center
Mon 11:40:54 AM 39.5022 -101.2411 253° West 368 423 34,000  Level Denver Center
Mon 11:41:56 AM 39.4714 -101.3594 251° West 364 419 34,000  Level Denver Center
Mon 11:42:58 AM 39.4350 -101.5022 252° West 371 427 34,000  Level Denver Center
Mon 11:44:00 AM 39.4053 -101.6225 252° West 368 423 34,000  Level Denver Center
Mon 11:45:02 AM 39.3608 -101.7611 248° West 372 428 34,000  Level Denver Center
Mon 11:46:04 AM 39.3175 -101.8750 244° Southwest 375 432 34,000  Level Denver Center
Mon 11:47:06 AM 39.2658 -102.0083 243° Southwest 374 430 34,000  Level Denver Center
Mon 11:48:09 AM 39.2211 -102.1233 243° Southwest 375 432 34,000  Level Denver Center
Mon 11:49:11 AM 39.1686 -102.2583 243° Southwest 376 433 34,000  Level Denver Center
Mon 11:50:13 AM 39.1236 -102.3731 243° Southwest 375 432 34,000  Level Denver Center
Mon 11:51:15 AM 39.0711 -102.5075 243° Southwest 377 434 34,000  Level Denver Center
Mon 11:52:17 AM 39.0267 -102.6217 243° Southwest 375 432 34,000  Level Denver Center
Mon 11:53:19 AM 38.9747 -102.7525 243° Southwest 369 425 34,000  Level Denver Center
Mon 11:54:21 AM 38.9258 -102.8781 243° Southwest 374 430 34,000  Level Denver Center
Mon 11:55:23 AM 38.8783 -102.9969 243° Southwest 370 426 34,000  Level Denver Center
Mon 11:56:25 AM 38.8311 -103.1161 243° Southwest 370 426 34,000  Level Denver Center
Mon 11:57:27 AM 38.7825 -103.2361 243° Southwest 373 429 34,000  Level Denver Center
Mon 11:58:29 AM 38.7347 -103.3553 243° Southwest 373 429 34,000  Level Denver Center
Mon 11:59:31 AM 38.6847 -103.4783 243° Southwest 371 427 34,000  Level Denver Center
Mon 12:00:33 PM 38.6461 -103.5731 242° Southwest 375 432 34,000  Level Denver Center
Mon 12:01:35 PM 38.5850 -103.7225 242° Southwest 372 428 34,000  Level Denver Center
Mon 12:02:37 PM 38.5403 -103.8347 243° Southwest 369 425 34,000  Level Denver Center
Mon 12:03:39 PM 38.4861 -103.9647 242° Southwest 373 429 34,000  Level Denver Center
Mon 12:04:41 PM 38.4414 -104.0756 243° Southwest 370 426 34,000  Level Denver Center
Mon 12:05:43 PM 38.3886 -104.2019 242° Southwest 370 426 34,000  Level Denver Center
Mon 12:06:45 PM 38.3397 -104.3194 242° Southwest 371 427 34,000 194 Level Denver Center
Mon 12:07:47 PM 38.2992 -104.4481 248° West 373 429 34,400 1,065 Climbing Denver Center
Mon 12:08:49 PM 38.3144 -104.5761 279° West 381 438 36,200 1,452 Climbing Denver Center
Mon 12:09:51 PM 38.3342 -104.7178 280° West 368 423 37,400 871 Climbing Denver Center
Mon 12:10:53 PM 38.3536 -104.8603 280° West 379 436 38,000 290 Climbing Denver Center
Mon 12:11:55 PM 38.3719 -104.9958 280° West 383 441 38,000  Level Denver Center
Mon 12:12:57 PM 38.3894 -105.1292 280° West 381 438 38,000  Level Denver Center
Mon 12:13:59 PM 38.4067 -105.2686 279° West 389 448 38,000  Level Denver Center
Mon 12:15:01 PM 38.4261 -105.4103 280° West 399 459 38,000  Level Denver Center
Mon 12:16:03 PM 38.4433 -105.5497 279° West 395 455 38,000  Level Denver Center
Mon 12:17:05 PM 38.4611 -105.6894 279° West 395 455 38,000  Level Denver Center
Mon 12:18:07 PM 38.4808 -105.8469 279° West 391 450 38,000  Level Denver Center
Mon 12:19:09 PM 38.4964 -105.9778 279° West 390 449 38,000  Level Denver Center
Mon 12:20:11 PM 38.4958 -106.1072 270° West 381 438 38,000  Level Denver Center
Mon 12:21:13 PM 38.4900 -106.2514 267° West 385 443 38,000  Level Denver Center
Mon 12:22:27 PM 38.4842 -106.3875 267° West 383 441 38,000  Level Denver Center
Mon 12:23:41 PM 38.4750 -106.5517 266° West 386 444 38,000  Level Denver Center
Mon 12:24:44 PM 38.4681 -106.7131 267° West 378 435 38,000  Level Denver Center
Mon 12:25:46 PM 38.4606 -106.8736 267° West 375 432 38,000  Level Denver Center
Mon 12:26:48 PM 38.4536 -107.0072 266° West 375 432 38,000  Level Denver Center
Mon 12:27:50 PM 38.4203 -107.1350 252° West 377 434 38,000  Level Denver Center
Mon 12:28:52 PM 38.3758 -107.2692 247° West 385 443 38,000  Level Denver Center
Mon 12:29:54 PM 38.3364 -107.3872 247° West 380 437 38,000  Level Denver Center
Mon 12:30:56 PM 38.2900 -107.5272 247° West 383 441 38,000  Level Denver Center
Mon 12:31:58 PM 38.2506 -107.6464 247° West 383 441 38,000  Level Denver Center
Mon 12:33:00 PM 38.2044 -107.7831 247° West 380 437 38,000  Level Denver Center
Mon 12:34:02 PM 38.1656 -107.8983 247° West 377 434 38,000  Level Denver Center
Mon 12:35:04 PM 38.1208 -108.0294 247° West 367 422 38,000  Level Denver Center
Mon 12:36:06 PM 38.0831 -108.1400 247° West 358 412 38,000  Level Denver Center
Mon 12:37:08 PM 38.0378 -108.2694 246° West 362 417 38,000  Level Denver Center
Mon 12:38:10 PM 37.9983 -108.3875 247° West 372 428 38,000  Level Denver Center
Mon 12:39:12 PM 37.9514 -108.5244 247° West 379 436 38,000  Level Denver Center
Mon 12:40:14 PM 37.9106 -108.6400 246° West 377 434 38,000  Level Denver Center
Mon 12:41:16 PM 37.8703 -108.7556 246° West 376 433 38,000  Level Denver Center
Mon 12:42:19 PM 37.8231 -108.8894 246° West 374 430 38,000  Level Denver Center
Mon 12:43:21 PM 37.7897 -109.0083 250° West 376 433 38,000  Level Denver Center
Mon 12:44:23 PM 37.7553 -109.1456 252° West 370 426 38,000  Level Denver Center
Mon 12:45:25 PM 37.7253 -109.2639 252° West 368 423 38,000  Level Denver Center
Mon 12:46:27 PM 37.6925 -109.4008 253° West 365 420 38,000  Level Denver Center
Mon 12:47:29 PM 37.6631 -109.5156 252° West 361 415 38,000 -290 Level Denver Center
Mon 12:48:31 PM 37.6289 -109.6522 253° West 365 420 37,400 -726 Descending Denver Center
Mon 12:49:33 PM 37.5972 -109.7731 252° West 377 434 36,500 -774 Descending Denver Center
Mon 12:50:35 PM 37.5614 -109.9183 253° West 389 448 35,800 -823 Descending Denver Center
Mon 12:51:37 PM 37.5297 -110.0428 252° West 390 449 34,800 -871 Descending Denver Center
Mon 12:52:39 PM 37.4919 -110.1875 252° West 389 448 34,000 -387 Descending Denver Center
Mon 12:53:41 PM 37.4619 -110.3011 252° West 378 435 34,000  Level Denver Center
Mon 12:54:43 PM 37.4303 -110.4253 252° West 375 432 34,000  Level Denver Center
Mon 12:55:45 PM 37.3917 -110.5747 252° West 379 436 34,000 -387 Level Denver Center
Mon 12:56:47 PM 37.3578 -110.7022 252° West 384 442 33,200 -871 Descending Denver Center
Mon 12:57:49 PM 37.3247 -110.8267 252° West 377 434 32,200 -581 Descending Denver Center
Mon 12:58:51 PM 37.2917 -110.9517 252° West 378 435 32,000 -97 Descending Denver Center
Mon 12:59:53 PM 37.2586 -111.0789 252° West 385 443 32,000  Level Denver Center
Mon 01:00:55 PM 37.2242 -111.2050 251° West 384 442 32,000  Level Denver Center
Mon 01:01:57 PM 37.1794 -111.3544 249° West 381 438 32,000  Level Denver Center
Mon 01:02:59 PM 37.1447 -111.4786 251° West 379 436 32,000  Level Denver Center
Mon 01:04:01 PM 37.1133 -111.6081 253° West 386 444 32,000  Level Denver Center
Mon 01:05:03 PM 37.0769 -111.7392 251° West 393 452 32,000  Level Denver Center
Mon 01:06:06 PM 37.0422 -111.8708 252° West 397 457 32,000 -240 Level Denver Center
Mon 01:07:08 PM 37.0047 -112.0044 251° West 402 463 31,500 -919 Descending Denver Center
Mon 01:08:10 PM 36.9622 -112.1544 251° West 388 447 30,100 -1,178 Descending Denver Center
Mon 01:08:55 PM 36.9433 -112.2225 251° West 352 405 29,400 -1,009 Descending Los Angeles Center
Mon 01:09:57 PM 36.9128 -112.3319 251° West 336 387 28,300 -871 Descending Los Angeles Center
Mon 01:10:59 PM 36.8814 -112.4650 254° West 333 383 27,600 -823 Descending Los Angeles Center
Mon 01:12:01 PM 36.8758 -112.5878 267° West 351 404 26,600 -968 Descending Los Angeles Center
Mon 01:13:03 PM 36.8681 -112.7122 266° West 357 411 25,600 -968 Descending Los Angeles Center
Mon 01:14:05 PM 36.8636 -112.8392 268° West 363 418 24,600 -774 Descending Los Angeles Center
Mon 01:15:07 PM 36.8936 -112.9639 287° West 374 430 24,000 -290 Descending Los Angeles Center
Mon 01:16:09 PM 36.9225 -113.1017 285° West 400 460 24,000  Level Los Angeles Center
Mon 01:17:23 PM 36.9497 -113.2389 284° West 405 466 24,000  Level Los Angeles Center
Mon 01:18:25 PM 36.9847 -113.4208 284° West 385 443 24,000  Level Los Angeles Center
Mon 01:19:27 PM 36.9725 -113.5392 263° West 367 422 24,000  Level Los Angeles Center
Mon 01:20:29 PM 36.9028 -113.6336 227° Southwest 370 426 24,000  Level Los Angeles Center
Mon 01:21:31 PM 36.8322 -113.7297 227° Southwest 375 432 24,000  Level Los Angeles Center
Mon 01:22:34 PM 36.7614 -113.8281 228° Southwest 379 436 24,000 -816 Level Los Angeles Center
Mon 01:23:36 PM 36.6878 -113.9261 227° Southwest 386 444 22,300 -1,790 Descending Los Angeles Center
Mon 01:24:38 PM 36.6094 -114.0325 227° Southwest 357 411 20,300 -1,935 Descending Los Angeles Center
Mon 01:25:40 PM 36.5533 -114.1178 231° Southwest 328 377 18,300 -2,081 Descending Los Angeles Center
Mon 01:26:42 PM 36.5119 -114.2164 242° Southwest 313 360 16,000 -1,790 Descending Los Angeles Center
Mon 01:27:44 PM 36.4717 -114.3056 241° Southwest 301 346 14,600 -1,465 Descending Los Angeles Center
Mon 01:28:08 PM 36.4567 -114.3542 249° West 298 343 13,900 -1,355 Descending Los Angeles Center
Mon 01:28:46 PM 36.4317 -114.3944 232° Southwest 295 339 13,200 -1,279 Descending Los Angeles Center
Mon 01:29:09 PM 36.4150 -114.4381 245° Southwest 292 336 12,600 -968 Descending Los Angeles Center
Mon 01:29:48 PM 36.3706 -114.4581 200° South 304 350 12,200 -537 Descending Los Angeles Center
Mon 01:30:16 PM 36.3194 -114.4758 196° South 317 365 12,000 -290 Descending Los Angeles Center
Mon 01:30:50 PM 36.2850 -114.4806 186° South 313 360 11,900 -200 Descending Los Angeles Center
Mon 01:31:16 PM 36.2389 -114.4928 192° South 299 344 11,800 -581 Descending Los Angeles Center
Mon 01:31:52 PM 36.1906 -114.4981 185° South 293 337 11,300 -1,082 Descending Los Angeles Center
Mon 01:32:17 PM 36.1642 -114.5072 196° South 272 313 10,700 -1,452 Descending Los Angeles Center
Mon 01:32:54 PM 36.1178 -114.5125 185° South 273 314 9,800 -1,377 Descending Los Angeles Center
Mon 01:33:18 PM 36.0914 -114.5211 195° South 264 304 9,300 -973 Descending Los Angeles Center
Mon 01:34:08 PM 36.0469 -114.5272 186° South 263 303 8,600 -985 Descending Los Angeles Center
Mon 01:34:25 PM 36.0317 -114.5628 242° Southwest 239 275 8,200 -571 Descending Los Angeles Center
Mon 01:35:11 PM 36.0456 -114.6036 293° West 222 255 8,000 -197 Descending Los Angeles Center
Mon 01:35:26 PM 36.0569 -114.6289 299° West 214 246 8,000  Level Los Angeles Center
Mon 01:36:13 PM 36.0689 -114.6697 290° West 211 243 8,000 -110 Level Los Angeles Center
Mon 01:37:15 PM 36.0744 -114.7386 276° West 204 235 7,800 -581 Descending Los Angeles Center
Mon 01:38:17 PM 36.0719 -114.8239 268° West 204 235 6,800 -984 Descending Los Angeles Center
Mon 01:39:17 PM 36.0731 -114.8978 271° West 204 235 5,800 -1,065 Descending Los Angeles Center
Mon 01:40:21 PM 36.0722 -114.9678 269° West 208 239 4,600 -1,048 Descending Los Angeles Center
Mon 01:41:23 PM 36.0733 -115.0314 271° West 201 231 3,600 -919 Descending Los Angeles Center
Mon 01:42:25 PM 36.0731 -115.0842 270° West 140 161 2,700 -768 Descending Los Angeles Center
Mon 01:43:28 PM 36.0736 -115.1239 271° West 143 165 2,000 -667 Descending Los Angeles Center
Mon 01:45:00 PM 36.0667 -115.1500 270° West  Level FlightAware Approximate

Login

Don't have an account? Register now (free) for customized features, flight alerts, and more!